sensor_id;sensor_type;location;lat;lon;timestamp;temperature;humidity
41630;DHT22;27322;49.488;8.480;2023-05-10T00:01:23;15.50;99.90
41630;DHT22;27322;49.488;8.480;2023-05-10T00:03:48;15.50;99.90
41630;DHT22;27322;49.488;8.480;2023-05-10T00:06:14;15.40;99.90
41630;DHT22;27322;49.488;8.480;2023-05-10T00:08:39;15.50;99.90
41630;DHT22;27322;49.488;8.480;2023-05-10T00:11:05;15.40;99.90
41630;DHT22;27322;49.488;8.480;2023-05-10T00:13:31;15.40;99.90
41630;DHT22;27322;49.488;8.480;2023-05-10T00:15:57;15.40;99.90
41630;DHT22;27322;49.488;8.480;2023-05-10T00:18:22;15.30;99.90
41630;DHT22;27322;49.488;8.480;2023-05-10T00:20:48;15.40;99.90
41630;DHT22;27322;49.488;8.480;2023-05-10T00:23:14;15.30;99.90
41630;DHT22;27322;49.488;8.480;2023-05-10T00:25:40;15.30;99.90
41630;DHT22;27322;49.488;8.480;2023-05-10T00:28:05;15.30;99.90
41630;DHT22;27322;49.488;8.480;2023-05-10T00:30:31;15.30;99.90
41630;DHT22;27322;49.488;8.480;2023-05-10T00:32:56;15.30;99.90
41630;DHT22;27322;49.488;8.480;2023-05-10T00:35:22;15.30;99.90
41630;DHT22;27322;49.488;8.480;2023-05-10T00:37:48;15.30;99.90
41630;DHT22;27322;49.488;8.480;2023-05-10T00:40:14;15.30;99.90
41630;DHT22;27322;49.488;8.480;2023-05-10T00:42:39;15.30;99.90
41630;DHT22;27322;49.488;8.480;2023-05-10T00:45:06;15.20;99.90
41630;DHT22;27322;49.488;8.480;2023-05-10T00:47:32;15.30;99.90
41630;DHT22;27322;49.488;8.480;2023-05-10T00:49:58;15.20;99.90
41630;DHT22;27322;49.488;8.480;2023-05-10T00:52:26;15.20;99.90
41630;DHT22;27322;49.488;8.480;2023-05-10T00:54:52;15.20;99.90
41630;DHT22;27322;49.488;8.480;2023-05-10T00:57:18;15.20;99.90
41630;DHT22;27322;49.488;8.480;2023-05-10T00:59:44;15.20;99.90
41630;DHT22;27322;49.488;8.480;2023-05-10T01:02:11;15.20;99.90
41630;DHT22;27322;49.488;8.480;2023-05-10T01:04:37;15.10;99.90
41630;DHT22;27322;49.488;8.480;2023-05-10T01:07:03;15.10;99.90
41630;DHT22;27322;49.488;8.480;2023-05-10T01:12:51;15.10;99.90
41630;DHT22;27322;49.488;8.480;2023-05-10T01:15:17;15.10;99.90
41630;DHT22;27322;49.488;8.480;2023-05-10T01:17:44;15.10;99.90
41630;DHT22;27322;49.488;8.480;2023-05-10T01:20:11;15.00;99.90
41630;DHT22;27322;49.488;8.480;2023-05-10T01:28:20;15.00;99.90
41630;DHT22;27322;49.488;8.480;2023-05-10T01:31:03;15.00;99.90
41630;DHT22;27322;49.488;8.480;2023-05-10T01:36:23;15.00;99.90
41630;DHT22;27322;49.488;8.480;2023-05-10T01:39:07;15.00;99.90
41630;DHT22;27322;49.488;8.480;2023-05-10T01:41:55;14.90;99.90
41630;DHT22;27322;49.488;8.480;2023-05-10T01:44:31;15.00;99.90
41630;DHT22;27322;49.488;8.480;2023-05-10T01:47:17;15.00;99.90
41630;DHT22;27322;49.488;8.480;2023-05-10T01:49:50;14.90;99.90
41630;DHT22;27322;49.488;8.480;2023-05-10T01:52:19;14.90;99.90
41630;DHT22;27322;49.488;8.480;2023-05-10T01:55:14;14.90;99.90
41630;DHT22;27322;49.488;8.480;2023-05-10T01:57:43;14.90;99.90
41630;DHT22;27322;49.488;8.480;2023-05-10T02:00:10;14.90;99.90
41630;DHT22;27322;49.488;8.480;2023-05-10T02:02:39;14.90;99.90
41630;DHT22;27322;49.488;8.480;2023-05-10T02:05:07;14.90;99.90
41630;DHT22;27322;49.488;8.480;2023-05-10T02:07:35;14.90;99.90
41630;DHT22;27322;49.488;8.480;2023-05-10T02:10:02;14.90;99.90
41630;DHT22;27322;49.488;8.480;2023-05-10T02:12:31;14.90;99.90
41630;DHT22;27322;49.488;8.480;2023-05-10T02:14:59;14.80;99.90
41630;DHT22;27322;49.488;8.480;2023-05-10T02:17:28;14.80;99.90
41630;DHT22;27322;49.488;8.480;2023-05-10T02:19:56;14.80;99.90
41630;DHT22;27322;49.488;8.480;2023-05-10T02:22:23;14.80;99.90
41630;DHT22;27322;49.488;8.480;2023-05-10T02:24:50;14.80;99.90
41630;DHT22;27322;49.488;8.480;2023-05-10T02:27:17;14.80;99.90
41630;DHT22;27322;49.488;8.480;2023-05-10T02:29:44;14.80;99.90
41630;DHT22;27322;49.488;8.480;2023-05-10T02:32:10;14.80;99.90
41630;DHT22;27322;49.488;8.480;2023-05-10T02:34:37;14.80;99.90
41630;DHT22;27322;49.488;8.480;2023-05-10T02:37:04;14.80;99.90
41630;DHT22;27322;49.488;8.480;2023-05-10T02:39:31;14.80;99.90
41630;DHT22;27322;49.488;8.480;2023-05-10T02:41:58;14.80;99.90
41630;DHT22;27322;49.488;8.480;2023-05-10T02:44:26;14.70;99.90
41630;DHT22;27322;49.488;8.480;2023-05-10T02:46:52;14.70;99.90
41630;DHT22;27322;49.488;8.480;2023-05-10T02:49:21;14.70;99.90
41630;DHT22;27322;49.488;8.480;2023-05-10T02:51:53;14.70;99.90
41630;DHT22;27322;49.488;8.480;2023-05-10T02:54:24;14.70;99.90
41630;DHT22;27322;49.488;8.480;2023-05-10T02:56:57;14.70;99.90
41630;DHT22;27322;49.488;8.480;2023-05-10T02:59:22;14.70;99.90
41630;DHT22;27322;49.488;8.480;2023-05-10T03:01:48;14.70;99.90
41630;DHT22;27322;49.488;8.480;2023-05-10T03:04:14;14.70;99.90
41630;DHT22;27322;49.488;8.480;2023-05-10T03:06:40;14.70;99.90
41630;DHT22;27322;49.488;8.480;2023-05-10T03:09:06;14.70;99.90
41630;DHT22;27322;49.488;8.480;2023-05-10T03:17:35;14.70;99.90
41630;DHT22;27322;49.488;8.480;2023-05-10T03:19:56;14.70;99.90
41630;DHT22;27322;49.488;8.480;2023-05-10T03:22:38;14.70;99.90
41630;DHT22;27322;49.488;8.480;2023-05-10T03:25:06;14.60;99.90
41630;DHT22;27322;49.488;8.480;2023-05-10T03:27:35;14.60;99.90
41630;DHT22;27322;49.488;8.480;2023-05-10T03:30:02;14.60;99.90
41630;DHT22;27322;49.488;8.480;2023-05-10T03:32:29;14.70;99.90
41630;DHT22;27322;49.488;8.480;2023-05-10T03:34:55;14.60;99.90
41630;DHT22;27322;49.488;8.480;2023-05-10T03:37:21;14.70;99.90
41630;DHT22;27322;49.488;8.480;2023-05-10T03:39:46;14.60;99.90
41630;DHT22;27322;49.488;8.480;2023-05-10T03:42:12;14.70;99.90
41630;DHT22;27322;49.488;8.480;2023-05-10T03:44:41;14.70;99.90
41630;DHT22;27322;49.488;8.480;2023-05-10T03:47:06;14.60;99.90
41630;DHT22;27322;49.488;8.480;2023-05-10T03:49:32;14.60;99.90
41630;DHT22;27322;49.488;8.480;2023-05-10T03:51:57;14.60;99.90
41630;DHT22;27322;49.488;8.480;2023-05-10T03:54:23;14.60;99.90
41630;DHT22;27322;49.488;8.480;2023-05-10T03:56:49;14.60;99.90
41630;DHT22;27322;49.488;8.480;2023-05-10T03:59:14;14.60;99.90
41630;DHT22;27322;49.488;8.480;2023-05-10T04:01:40;14.50;99.90
41630;DHT22;27322;49.488;8.480;2023-05-10T04:04:06;14.50;99.90
41630;DHT22;27322;49.488;8.480;2023-05-10T04:06:31;14.40;99.90
41630;DHT22;27322;49.488;8.480;2023-05-10T04:08:57;14.40;99.90
41630;DHT22;27322;49.488;8.480;2023-05-10T04:11:25;14.40;99.90
41630;DHT22;27322;49.488;8.480;2023-05-10T04:13:51;14.40;99.90
41630;DHT22;27322;49.488;8.480;2023-05-10T04:16:16;14.40;99.90
41630;DHT22;27322;49.488;8.480;2023-05-10T04:18:42;14.40;99.90
41630;DHT22;27322;49.488;8.480;2023-05-10T04:21:16;14.40;99.90
41630;DHT22;27322;49.488;8.480;2023-05-10T04:23:42;14.30;99.90
41630;DHT22;27322;49.488;8.480;2023-05-10T04:26:07;14.30;99.90
41630;DHT22;27322;49.488;8.480;2023-05-10T04:28:33;14.30;99.90
41630;DHT22;27322;49.488;8.480;2023-05-10T04:31:06;14.30;99.90
41630;DHT22;27322;49.488;8.480;2023-05-10T04:33:33;14.30;99.90
41630;DHT22;27322;49.488;8.480;2023-05-10T04:35:59;14.30;99.90
41630;DHT22;27322;49.488;8.480;2023-05-10T04:38:25;14.30;99.90
41630;DHT22;27322;49.488;8.480;2023-05-10T04:40:51;14.30;99.90
41630;DHT22;27322;49.488;8.480;2023-05-10T04:43:16;14.30;99.90
41630;DHT22;27322;49.488;8.480;2023-05-10T04:45:42;14.30;99.90
41630;DHT22;27322;49.488;8.480;2023-05-10T04:48:07;14.30;99.90
41630;DHT22;27322;49.488;8.480;2023-05-10T04:50:33;14.30;99.90
41630;DHT22;27322;49.488;8.480;2023-05-10T04:52:59;14.30;99.90
41630;DHT22;27322;49.488;8.480;2023-05-10T04:55:24;14.30;99.90
41630;DHT22;27322;49.488;8.480;2023-05-10T04:57:50;14.30;99.90
41630;DHT22;27322;49.488;8.480;2023-05-10T05:00:16;14.30;99.90
41630;DHT22;27322;49.488;8.480;2023-05-10T05:02:45;14.30;99.90
41630;DHT22;27322;49.488;8.480;2023-05-10T05:05:11;14.30;99.90
41630;DHT22;27322;49.488;8.480;2023-05-10T05:07:37;14.30;99.90
41630;DHT22;27322;49.488;8.480;2023-05-10T05:10:05;14.40;99.90
41630;DHT22;27322;49.488;8.480;2023-05-10T05:12:30;14.30;99.90
41630;DHT22;27322;49.488;8.480;2023-05-10T05:14:56;14.40;99.90
41630;DHT22;27322;49.488;8.480;2023-05-10T05:17:22;14.40;99.90
41630;DHT22;27322;49.488;8.480;2023-05-10T05:19:47;14.40;99.90
41630;DHT22;27322;49.488;8.480;2023-05-10T05:22:13;14.40;99.90
41630;DHT22;27322;49.488;8.480;2023-05-10T05:24:38;14.40;99.90
41630;DHT22;27322;49.488;8.480;2023-05-10T05:27:04;14.40;99.90
41630;DHT22;27322;49.488;8.480;2023-05-10T05:29:30;14.40;99.90
41630;DHT22;27322;49.488;8.480;2023-05-10T05:31:55;14.40;99.90
41630;DHT22;27322;49.488;8.480;2023-05-10T05:34:21;14.40;99.90
41630;DHT22;27322;49.488;8.480;2023-05-10T05:36:48;14.40;99.90
41630;DHT22;27322;49.488;8.480;2023-05-10T05:39:13;14.40;99.90
41630;DHT22;27322;49.488;8.480;2023-05-10T05:41:39;14.40;99.90
41630;DHT22;27322;49.488;8.480;2023-05-10T05:44:05;14.50;99.90
41630;DHT22;27322;49.488;8.480;2023-05-10T05:46:30;14.50;99.90
41630;DHT22;27322;49.488;8.480;2023-05-10T05:48:56;14.50;99.90
41630;DHT22;27322;49.488;8.480;2023-05-10T05:51:22;14.50;99.90
41630;DHT22;27322;49.488;8.480;2023-05-10T05:53:47;14.50;99.90
41630;DHT22;27322;49.488;8.480;2023-05-10T05:56:13;14.50;99.90
41630;DHT22;27322;49.488;8.480;2023-05-10T05:58:39;14.60;99.90
41630;DHT22;27322;49.488;8.480;2023-05-10T06:01:05;14.60;99.90
41630;DHT22;27322;49.488;8.480;2023-05-10T06:03:30;14.60;99.90
41630;DHT22;27322;49.488;8.480;2023-05-10T06:05:56;14.60;99.90
41630;DHT22;27322;49.488;8.480;2023-05-10T06:08:21;14.60;99.90
41630;DHT22;27322;49.488;8.480;2023-05-10T06:10:47;14.60;99.90
41630;DHT22;27322;49.488;8.480;2023-05-10T06:13:13;14.70;99.90
41630;DHT22;27322;49.488;8.480;2023-05-10T06:15:39;14.60;99.90
41630;DHT22;27322;49.488;8.480;2023-05-10T06:18:04;14.70;99.90
41630;DHT22;27322;49.488;8.480;2023-05-10T06:20:31;14.70;99.90
41630;DHT22;27322;49.488;8.480;2023-05-10T06:22:57;14.70;99.90
41630;DHT22;27322;49.488;8.480;2023-05-10T06:25:23;14.70;99.90
41630;DHT22;27322;49.488;8.480;2023-05-10T06:27:49;14.70;99.90
41630;DHT22;27322;49.488;8.480;2023-05-10T06:30:14;14.70;99.90
41630;DHT22;27322;49.488;8.480;2023-05-10T06:32:41;14.70;99.90
41630;DHT22;27322;49.488;8.480;2023-05-10T06:35:07;14.80;99.90
41630;DHT22;27322;49.488;8.480;2023-05-10T06:37:33;14.80;99.90
41630;DHT22;27322;49.488;8.480;2023-05-10T06:39:59;14.80;99.90
41630;DHT22;27322;49.488;8.480;2023-05-10T06:42:25;14.80;99.90
41630;DHT22;27322;49.488;8.480;2023-05-10T06:44:52;14.90;99.90
41630;DHT22;27322;49.488;8.480;2023-05-10T06:47:18;14.90;99.90
41630;DHT22;27322;49.488;8.480;2023-05-10T06:49:43;14.90;99.90
41630;DHT22;27322;49.488;8.480;2023-05-10T06:52:09;14.90;99.90
41630;DHT22;27322;49.488;8.480;2023-05-10T06:54:35;14.90;99.90
41630;DHT22;27322;49.488;8.480;2023-05-10T06:57:00;14.90;99.90
41630;DHT22;27322;49.488;8.480;2023-05-10T06:59:28;14.90;99.90
41630;DHT22;27322;49.488;8.480;2023-05-10T07:01:53;15.00;99.90
41630;DHT22;27322;49.488;8.480;2023-05-10T07:04:22;15.00;99.90
41630;DHT22;27322;49.488;8.480;2023-05-10T07:06:47;15.00;99.90
41630;DHT22;27322;49.488;8.480;2023-05-10T07:09:14;15.00;99.90
41630;DHT22;27322;49.488;8.480;2023-05-10T07:11:41;15.00;99.90
41630;DHT22;27322;49.488;8.480;2023-05-10T07:14:06;15.00;99.90
41630;DHT22;27322;49.488;8.480;2023-05-10T07:16:32;15.00;99.90
41630;DHT22;27322;49.488;8.480;2023-05-10T07:18:57;15.10;99.90
41630;DHT22;27322;49.488;8.480;2023-05-10T07:21:23;15.10;99.90
41630;DHT22;27322;49.488;8.480;2023-05-10T07:23:54;15.10;99.90
41630;DHT22;27322;49.488;8.480;2023-05-10T07:26:19;15.20;99.90
41630;DHT22;27322;49.488;8.480;2023-05-10T07:28:46;15.20;99.90
41630;DHT22;27322;49.488;8.480;2023-05-10T07:31:12;15.20;99.90
41630;DHT22;27322;49.488;8.480;2023-05-10T07:33:37;15.20;99.90
41630;DHT22;27322;49.488;8.480;2023-05-10T07:36:03;15.20;99.90
41630;DHT22;27322;49.488;8.480;2023-05-10T07:38:29;15.30;99.90
41630;DHT22;27322;49.488;8.480;2023-05-10T07:40:54;15.30;99.90
41630;DHT22;27322;49.488;8.480;2023-05-10T07:43:20;15.30;99.90
41630;DHT22;27322;49.488;8.480;2023-05-10T07:45:45;15.30;99.90
41630;DHT22;27322;49.488;8.480;2023-05-10T07:48:11;15.40;99.90
41630;DHT22;27322;49.488;8.480;2023-05-10T07:50:36;15.40;99.90
41630;DHT22;27322;49.488;8.480;2023-05-10T07:53:02;15.40;99.90
41630;DHT22;27322;49.488;8.480;2023-05-10T07:55:28;15.40;99.90
41630;DHT22;27322;49.488;8.480;2023-05-10T07:57:53;15.40;99.90
41630;DHT22;27322;49.488;8.480;2023-05-10T08:00:19;15.40;99.90
41630;DHT22;27322;49.488;8.480;2023-05-10T08:02:46;15.40;99.90
41630;DHT22;27322;49.488;8.480;2023-05-10T08:05:12;15.50;99.90
41630;DHT22;27322;49.488;8.480;2023-05-10T08:07:37;15.50;99.90
41630;DHT22;27322;49.488;8.480;2023-05-10T08:10:04;15.50;99.90
41630;DHT22;27322;49.488;8.480;2023-05-10T08:12:29;15.50;99.90
41630;DHT22;27322;49.488;8.480;2023-05-10T08:14:55;15.50;99.90
41630;DHT22;27322;49.488;8.480;2023-05-10T08:17:21;15.40;99.90
41630;DHT22;27322;49.488;8.480;2023-05-10T08:19:46;15.50;99.90
41630;DHT22;27322;49.488;8.480;2023-05-10T08:22:12;15.50;99.90
41630;DHT22;27322;49.488;8.480;2023-05-10T08:24:38;15.50;99.90
41630;DHT22;27322;49.488;8.480;2023-05-10T08:27:08;15.50;99.90
41630;DHT22;27322;49.488;8.480;2023-05-10T08:29:34;15.50;99.90
41630;DHT22;27322;49.488;8.480;2023-05-10T08:31:59;15.50;99.90
41630;DHT22;27322;49.488;8.480;2023-05-10T08:34:26;15.60;99.90
41630;DHT22;27322;49.488;8.480;2023-05-10T08:36:52;15.60;99.90
41630;DHT22;27322;49.488;8.480;2023-05-10T08:39:17;15.60;99.90
41630;DHT22;27322;49.488;8.480;2023-05-10T08:41:44;15.60;99.90
41630;DHT22;27322;49.488;8.480;2023-05-10T08:44:11;15.60;99.90
41630;DHT22;27322;49.488;8.480;2023-05-10T08:46:37;15.70;99.90
41630;DHT22;27322;49.488;8.480;2023-05-10T08:49:09;15.60;99.90
41630;DHT22;27322;49.488;8.480;2023-05-10T08:51:40;15.60;99.90
41630;DHT22;27322;49.488;8.480;2023-05-10T08:54:08;15.50;99.90
41630;DHT22;27322;49.488;8.480;2023-05-10T08:56:36;15.50;99.90
41630;DHT22;27322;49.488;8.480;2023-05-10T08:59:02;15.40;99.90
41630;DHT22;27322;49.488;8.480;2023-05-10T09:01:28;15.40;99.90
41630;DHT22;27322;49.488;8.480;2023-05-10T09:03:57;15.30;99.90
41630;DHT22;27322;49.488;8.480;2023-05-10T09:06:23;15.30;99.90
41630;DHT22;27322;49.488;8.480;2023-05-10T09:08:49;15.30;99.90
41630;DHT22;27322;49.488;8.480;2023-05-10T09:11:15;15.30;99.90
41630;DHT22;27322;49.488;8.480;2023-05-10T09:13:41;15.30;99.90
41630;DHT22;27322;49.488;8.480;2023-05-10T09:16:07;15.30;99.90
41630;DHT22;27322;49.488;8.480;2023-05-10T09:18:33;15.30;99.90
41630;DHT22;27322;49.488;8.480;2023-05-10T09:20:58;15.20;99.90
41630;DHT22;27322;49.488;8.480;2023-05-10T09:23:24;15.30;99.90
41630;DHT22;27322;49.488;8.480;2023-05-10T09:26:05;15.20;99.90
41630;DHT22;27322;49.488;8.480;2023-05-10T09:28:49;15.20;99.90
41630;DHT22;27322;49.488;8.480;2023-05-10T09:31:15;15.20;99.90
41630;DHT22;27322;49.488;8.480;2023-05-10T09:33:45;15.30;99.90
41630;DHT22;27322;49.488;8.480;2023-05-10T09:36:11;15.30;99.90
41630;DHT22;27322;49.488;8.480;2023-05-10T09:38:51;15.30;99.90
41630;DHT22;27322;49.488;8.480;2023-05-10T09:41:21;15.40;99.90
41630;DHT22;27322;49.488;8.480;2023-05-10T09:43:47;15.40;99.90
41630;DHT22;27322;49.488;8.480;2023-05-10T09:46:14;15.50;99.90
41630;DHT22;27322;49.488;8.480;2023-05-10T09:48:49;15.50;99.90
41630;DHT22;27322;49.488;8.480;2023-05-10T09:51:23;15.50;99.90
41630;DHT22;27322;49.488;8.480;2023-05-10T09:54:15;15.50;99.90
41630;DHT22;27322;49.488;8.480;2023-05-10T09:56:41;15.50;99.90
41630;DHT22;27322;49.488;8.480;2023-05-10T09:59:11;15.50;99.90
41630;DHT22;27322;49.488;8.480;2023-05-10T10:01:38;15.50;99.90
41630;DHT22;27322;49.488;8.480;2023-05-10T10:04:05;15.50;99.90
41630;DHT22;27322;49.488;8.480;2023-05-10T10:06:38;15.40;99.90
41630;DHT22;27322;49.488;8.480;2023-05-10T10:09:05;15.40;99.90
41630;DHT22;27322;49.488;8.480;2023-05-10T10:11:31;15.30;99.90
41630;DHT22;27322;49.488;8.480;2023-05-10T10:13:58;15.30;99.90
41630;DHT22;27322;49.488;8.480;2023-05-10T10:16:24;15.30;99.90
41630;DHT22;27322;49.488;8.480;2023-05-10T10:18:50;15.30;99.90
41630;DHT22;27322;49.488;8.480;2023-05-10T10:21:16;15.30;99.90
41630;DHT22;27322;49.488;8.480;2023-05-10T10:23:42;15.40;99.90
41630;DHT22;27322;49.488;8.480;2023-05-10T10:26:10;15.40;99.90
41630;DHT22;27322;49.488;8.480;2023-05-10T10:29:00;15.40;99.90
41630;DHT22;27322;49.488;8.480;2023-05-10T10:34:26;15.40;99.90
41630;DHT22;27322;49.488;8.480;2023-05-10T10:36:54;15.40;99.90
41630;DHT22;27322;49.488;8.480;2023-05-10T10:39:20;15.40;99.90
41630;DHT22;27322;49.488;8.480;2023-05-10T10:41:56;15.40;99.90
41630;DHT22;27322;49.488;8.480;2023-05-10T10:52:41;15.70;99.90
41630;DHT22;27322;49.488;8.480;2023-05-10T10:55:17;15.70;99.90
41630;DHT22;27322;49.488;8.480;2023-05-10T11:00:26;15.90;99.90
41630;DHT22;27322;49.488;8.480;2023-05-10T11:10:37;16.30;99.90
41630;DHT22;27322;49.488;8.480;2023-05-10T11:13:05;16.40;99.90
41630;DHT22;27322;49.488;8.480;2023-05-10T11:15:39;16.40;99.90
41630;DHT22;27322;49.488;8.480;2023-05-10T11:20:43;16.50;99.90
41630;DHT22;27322;49.488;8.480;2023-05-10T11:23:13;16.50;99.90
41630;DHT22;27322;49.488;8.480;2023-05-10T11:25:42;16.60;99.90
41630;DHT22;27322;49.488;8.480;2023-05-10T11:28:09;16.60;99.90
41630;DHT22;27322;49.488;8.480;2023-05-10T11:30:36;16.70;99.90
41630;DHT22;27322;49.488;8.480;2023-05-10T11:33:01;16.70;99.90
41630;DHT22;27322;49.488;8.480;2023-05-10T11:35:27;16.80;99.90
41630;DHT22;27322;49.488;8.480;2023-05-10T11:37:53;16.80;99.90
41630;DHT22;27322;49.488;8.480;2023-05-10T11:40:21;16.80;99.90
41630;DHT22;27322;49.488;8.480;2023-05-10T11:42:49;16.80;99.90
41630;DHT22;27322;49.488;8.480;2023-05-10T11:45:14;16.80;99.90
41630;DHT22;27322;49.488;8.480;2023-05-10T11:47:40;16.80;99.90
41630;DHT22;27322;49.488;8.480;2023-05-10T11:50:08;16.80;99.90
41630;DHT22;27322;49.488;8.480;2023-05-10T11:52:37;16.90;99.90
41630;DHT22;27322;49.488;8.480;2023-05-10T11:55:03;16.90;99.90
41630;DHT22;27322;49.488;8.480;2023-05-10T11:57:28;16.90;99.90
41630;DHT22;27322;49.488;8.480;2023-05-10T11:59:56;16.90;99.90
41630;DHT22;27322;49.488;8.480;2023-05-10T12:02:23;16.90;99.90
41630;DHT22;27322;49.488;8.480;2023-05-10T12:04:49;16.90;99.90
41630;DHT22;27322;49.488;8.480;2023-05-10T12:07:15;16.80;99.90
41630;DHT22;27322;49.488;8.480;2023-05-10T12:09:44;16.80;99.90
41630;DHT22;27322;49.488;8.480;2023-05-10T12:12:16;16.80;99.90
41630;DHT22;27322;49.488;8.480;2023-05-10T12:14:42;16.80;99.90
41630;DHT22;27322;49.488;8.480;2023-05-10T12:17:11;16.80;99.90
41630;DHT22;27322;49.488;8.480;2023-05-10T12:19:38;16.70;99.90
41630;DHT22;27322;49.488;8.480;2023-05-10T12:22:07;16.70;99.90
41630;DHT22;27322;49.488;8.480;2023-05-10T12:24:36;16.80;99.90
41630;DHT22;27322;49.488;8.480;2023-05-10T12:27:08;16.80;99.90
41630;DHT22;27322;49.488;8.480;2023-05-10T12:29:33;16.90;99.90
41630;DHT22;27322;49.488;8.480;2023-05-10T12:31:59;16.90;99.90
41630;DHT22;27322;49.488;8.480;2023-05-10T12:34:33;16.90;99.90
41630;DHT22;27322;49.488;8.480;2023-05-10T12:37:00;16.90;99.90
41630;DHT22;27322;49.488;8.480;2023-05-10T12:39:26;17.00;99.90
41630;DHT22;27322;49.488;8.480;2023-05-10T12:42:02;17.00;99.90
41630;DHT22;27322;49.488;8.480;2023-05-10T12:44:28;17.00;99.90
41630;DHT22;27322;49.488;8.480;2023-05-10T12:46:53;17.00;99.90
41630;DHT22;27322;49.488;8.480;2023-05-10T12:49:19;17.00;99.90
41630;DHT22;27322;49.488;8.480;2023-05-10T12:51:44;17.00;99.90
41630;DHT22;27322;49.488;8.480;2023-05-10T12:54:10;17.00;99.90
41630;DHT22;27322;49.488;8.480;2023-05-10T12:56:36;17.00;99.90
41630;DHT22;27322;49.488;8.480;2023-05-10T12:59:02;17.00;99.90
41630;DHT22;27322;49.488;8.480;2023-05-10T13:01:28;17.00;99.90
41630;DHT22;27322;49.488;8.480;2023-05-10T13:03:53;17.10;99.90
41630;DHT22;27322;49.488;8.480;2023-05-10T13:06:19;17.10;99.90
41630;DHT22;27322;49.488;8.480;2023-05-10T13:08:44;17.10;99.90
41630;DHT22;27322;49.488;8.480;2023-05-10T13:11:10;17.10;99.90
41630;DHT22;27322;49.488;8.480;2023-05-10T13:13:36;17.10;99.90
41630;DHT22;27322;49.488;8.480;2023-05-10T13:16:01;17.10;99.90
41630;DHT22;27322;49.488;8.480;2023-05-10T13:18:27;17.20;99.90
41630;DHT22;27322;49.488;8.480;2023-05-10T13:20:53;17.10;99.90
41630;DHT22;27322;49.488;8.480;2023-05-10T13:23:19;17.20;99.90
41630;DHT22;27322;49.488;8.480;2023-05-10T13:25:45;17.20;99.90
41630;DHT22;27322;49.488;8.480;2023-05-10T13:28:10;17.10;99.90
41630;DHT22;27322;49.488;8.480;2023-05-10T13:30:36;17.10;99.90
41630;DHT22;27322;49.488;8.480;2023-05-10T13:33:02;17.10;99.90
41630;DHT22;27322;49.488;8.480;2023-05-10T13:35:27;17.10;99.90
41630;DHT22;27322;49.488;8.480;2023-05-10T13:37:53;17.10;99.90
41630;DHT22;27322;49.488;8.480;2023-05-10T13:40:22;17.10;99.90
41630;DHT22;27322;49.488;8.480;2023-05-10T13:42:47;17.10;99.90
41630;DHT22;27322;49.488;8.480;2023-05-10T13:45:13;17.20;99.90
41630;DHT22;27322;49.488;8.480;2023-05-10T13:47:38;17.20;99.90
41630;DHT22;27322;49.488;8.480;2023-05-10T13:50:04;17.20;99.90
41630;DHT22;27322;49.488;8.480;2023-05-10T13:52:30;17.20;99.90
41630;DHT22;27322;49.488;8.480;2023-05-10T13:54:56;17.20;99.90
41630;DHT22;27322;49.488;8.480;2023-05-10T13:57:22;17.30;99.90
41630;DHT22;27322;49.488;8.480;2023-05-10T13:59:49;17.30;99.90
41630;DHT22;27322;49.488;8.480;2023-05-10T14:02:15;17.30;99.90
41630;DHT22;27322;49.488;8.480;2023-05-10T14:04:40;17.40;99.90
41630;DHT22;27322;49.488;8.480;2023-05-10T14:07:06;17.40;99.90
41630;DHT22;27322;49.488;8.480;2023-05-10T14:09:31;17.40;99.90
41630;DHT22;27322;49.488;8.480;2023-05-10T14:11:57;17.40;99.90
41630;DHT22;27322;49.488;8.480;2023-05-10T14:14:23;17.40;99.90
41630;DHT22;27322;49.488;8.480;2023-05-10T14:16:48;17.40;99.90
41630;DHT22;27322;49.488;8.480;2023-05-10T14:19:14;17.40;99.90
41630;DHT22;27322;49.488;8.480;2023-05-10T14:21:39;17.30;99.90
41630;DHT22;27322;49.488;8.480;2023-05-10T14:24:05;17.30;99.90
41630;DHT22;27322;49.488;8.480;2023-05-10T14:26:32;17.30;99.90
41630;DHT22;27322;49.488;8.480;2023-05-10T14:28:58;17.20;99.90
41630;DHT22;27322;49.488;8.480;2023-05-10T14:31:24;17.20;99.90
41630;DHT22;27322;49.488;8.480;2023-05-10T14:33:50;17.20;99.90
41630;DHT22;27322;49.488;8.480;2023-05-10T14:36:17;17.20;99.90
41630;DHT22;27322;49.488;8.480;2023-05-10T14:38:42;17.20;99.90
41630;DHT22;27322;49.488;8.480;2023-05-10T14:41:08;17.20;99.90
41630;DHT22;27322;49.488;8.480;2023-05-10T14:43:34;17.10;99.90
41630;DHT22;27322;49.488;8.480;2023-05-10T14:45:59;17.20;99.90
41630;DHT22;27322;49.488;8.480;2023-05-10T14:48:25;17.10;99.90
41630;DHT22;27322;49.488;8.480;2023-05-10T14:50:50;17.10;99.90
41630;DHT22;27322;49.488;8.480;2023-05-10T14:53:17;17.10;99.90
41630;DHT22;27322;49.488;8.480;2023-05-10T14:55:43;17.10;99.90
41630;DHT22;27322;49.488;8.480;2023-05-10T14:58:09;17.10;99.90
41630;DHT22;27322;49.488;8.480;2023-05-10T15:00:34;17.10;99.90
41630;DHT22;27322;49.488;8.480;2023-05-10T15:03:01;17.10;99.90
41630;DHT22;27322;49.488;8.480;2023-05-10T15:05:27;17.10;99.90
41630;DHT22;27322;49.488;8.480;2023-05-10T15:07:52;17.10;99.90
41630;DHT22;27322;49.488;8.480;2023-05-10T15:10:18;17.10;99.90
41630;DHT22;27322;49.488;8.480;2023-05-10T15:12:43;17.10;99.90
41630;DHT22;27322;49.488;8.480;2023-05-10T15:15:09;17.10;99.90
41630;DHT22;27322;49.488;8.480;2023-05-10T15:17:35;17.10;99.90
41630;DHT22;27322;49.488;8.480;2023-05-10T15:20:01;17.10;99.90
41630;DHT22;27322;49.488;8.480;2023-05-10T15:22:28;17.10;99.90
41630;DHT22;27322;49.488;8.480;2023-05-10T15:24:54;17.10;99.90
41630;DHT22;27322;49.488;8.480;2023-05-10T15:27:20;17.10;99.90
41630;DHT22;27322;49.488;8.480;2023-05-10T15:29:48;17.10;99.90
41630;DHT22;27322;49.488;8.480;2023-05-10T15:32:14;17.20;99.90
41630;DHT22;27322;49.488;8.480;2023-05-10T15:34:39;17.20;99.90
41630;DHT22;27322;49.488;8.480;2023-05-10T15:37:05;17.20;99.90
41630;DHT22;27322;49.488;8.480;2023-05-10T15:39:30;17.10;99.90
41630;DHT22;27322;49.488;8.480;2023-05-10T15:41:56;17.10;99.90
41630;DHT22;27322;49.488;8.480;2023-05-10T15:44:21;17.10;99.90
41630;DHT22;27322;49.488;8.480;2023-05-10T15:46:47;17.10;99.90
41630;DHT22;27322;49.488;8.480;2023-05-10T15:49:12;17.10;99.90
41630;DHT22;27322;49.488;8.480;2023-05-10T15:51:38;17.10;99.90
41630;DHT22;27322;49.488;8.480;2023-05-10T15:54:04;17.10;99.90
41630;DHT22;27322;49.488;8.480;2023-05-10T15:56:32;17.20;99.90
41630;DHT22;27322;49.488;8.480;2023-05-10T15:58:58;17.20;99.90
41630;DHT22;27322;49.488;8.480;2023-05-10T16:01:24;17.20;99.90
41630;DHT22;27322;49.488;8.480;2023-05-10T16:03:50;17.20;99.90
41630;DHT22;27322;49.488;8.480;2023-05-10T16:06:15;17.20;99.90
41630;DHT22;27322;49.488;8.480;2023-05-10T16:08:41;17.20;99.90
41630;DHT22;27322;49.488;8.480;2023-05-10T16:11:07;17.20;99.90